Time;durP1;ratioP1;P1;durP2;ratioP2;P2;SDS_P1;SDS_P2;PMS_P1;PMS_P2;Temp;Humidity;BMP_temperature;BMP_pressure;BME280_temperature;BME280_humidity;BME280_pressure;Samples;Min_cycle;Max_cycle;Signal;HPM_P1;HPM_P2
2022/10/25 00:01:24;;;;;;;10.80;4.80;;;13.80;99.90;;;;;;4918453;29;20474;-76
2022/10/25 00:03:53;;;;;;;8.80;4.70;;;13.80;99.90;;;;;;4918804;29;20427;-75
2022/10/25 00:06:21;;;;;;;11.10;5.47;;;13.70;99.90;;;;;;4918813;29;20500;-76
2022/10/25 00:08:49;;;;;;;10.07;5.30;;;13.80;99.90;;;;;;4917136;29;20457;-76
2022/10/25 00:11:22;;;;;;;11.33;6.00;;;13.80;99.90;;;;;;4918400;29;20471;-76
2022/10/25 00:13:50;;;;;;;11.90;5.30;;;13.80;99.90;;;;;;4918439;29;20443;-76
2022/10/25 00:16:20;;;;;;;11.30;6.20;;;13.80;99.90;;;;;;4918228;29;20444;-76
2022/10/25 00:18:49;;;;;;;10.10;5.53;;;13.80;99.90;;;;;;4918163;29;20930;-76
2022/10/25 00:21:17;;;;;;;11.50;6.80;;;13.80;99.90;;;;;;4916818;29;20465;-76
2022/10/25 00:23:45;;;;;;;9.23;5.60;;;13.80;99.90;;;;;;4918085;29;20451;-76
2022/10/25 00:26:14;;;;;;;8.03;5.50;;;13.80;99.90;;;;;;4918046;29;20543;-76
2022/10/25 00:28:43;;;;;;;10.53;6.50;;;13.80;99.90;;;;;;4916788;29;20464;-76
2022/10/25 00:31:13;;;;;;;11.77;6.50;;;13.70;99.90;;;;;;4917843;29;20805;-76
2022/10/25 00:33:43;;;;;;;17.23;6.10;;;13.80;99.90;;;;;;4916605;29;20453;-76
2022/10/25 00:36:13;;;;;;;11.67;6.37;;;13.80;99.90;;;;;;4917862;29;20440;-76
2022/10/25 00:38:42;;;;;;;10.57;6.20;;;13.80;99.90;;;;;;4916821;29;21082;-76
2022/10/25 00:41:12;;;;;;;9.07;6.13;;;13.80;99.90;;;;;;4916455;29;20527;-76
2022/10/25 00:43:44;;;;;;;11.00;6.73;;;13.80;99.90;;;;;;4916128;29;20966;-76
2022/10/25 00:46:18;;;;;;;11.20;7.13;;;13.80;99.90;;;;;;4917799;29;20517;-76
2022/10/25 00:48:53;;;;;;;14.03;8.57;;;13.80;99.90;;;;;;4917721;29;20432;-75
2022/10/25 00:51:24;;;;;;;10.20;7.73;;;13.80;99.90;;;;;;4916902;29;20467;-76
2022/10/25 00:53:52;;;;;;;12.90;8.03;;;13.90;99.90;;;;;;4918010;29;20428;-76
2022/10/25 00:56:25;;;;;;;15.03;9.60;;;13.90;99.90;;;;;;4917465;29;20451;-76
2022/10/25 00:58:58;;;;;;;13.87;8.90;;;13.90;99.90;;;;;;4916296;29;20950;-76
2022/10/25 01:01:27;;;;;;;14.70;8.20;;;13.90;99.90;;;;;;4917519;29;20464;-76
2022/10/25 01:04:00;;;;;;;14.60;11.07;;;13.90;99.90;;;;;;4917347;29;20444;-76
2022/10/25 01:06:33;;;;;;;17.27;9.57;;;13.90;99.90;;;;;;4916189;29;20479;-75
2022/10/25 01:09:02;;;;;;;13.70;10.10;;;14.00;99.90;;;;;;4916167;29;20931;-76
2022/10/25 01:11:30;;;;;;;13.20;10.23;;;14.00;99.90;;;;;;4917274;29;20456;-75
2022/10/25 01:14:00;;;;;;;15.93;9.67;;;14.00;99.90;;;;;;4917226;29;20970;-75
2022/10/25 01:16:35;;;;;;;12.77;10.00;;;14.00;99.90;;;;;;4917260;29;20962;-76
2022/10/25 01:19:21;;;;;;;13.43;10.20;;;14.10;99.90;;;;;;4916165;29;20842;-75
2022/10/25 01:21:53;;;;;;;11.73;9.83;;;14.00;99.90;;;;;;4916003;29;20480;-75
2022/10/25 01:25:02;;;;;;;15.07;10.10;;;14.10;99.90;;;;;;4917466;29;20425;-74
2022/10/25 01:28:02;;;;;;;13.50;10.37;;;14.10;99.90;;;;;;4880875;29;20815;-76
2022/10/25 01:30:54;;;;;;;11.27;9.30;;;14.10;99.90;;;;;;4917326;29;21045;-76
2022/10/25 01:33:30;;;;;;;15.60;10.20;;;14.10;99.90;;;;;;4917055;29;20523;-75
2022/10/25 01:36:03;;;;;;;12.67;10.57;;;14.10;99.90;;;;;;4915792;29;20523;-76
2022/10/25 01:38:39;;;;;;;12.40;10.23;;;14.10;99.90;;;;;;4916980;29;20515;-75
2022/10/25 01:41:17;;;;;;;12.67;10.30;;;14.10;99.90;;;;;;4915755;29;20825;-75
2022/10/25 01:43:57;;;;;;;13.60;11.23;;;14.10;99.90;;;;;;4915807;29;20449;-75
2022/10/25 01:46:31;;;;;;;13.37;10.57;;;14.20;99.90;;;;;;4915725;29;20449;-75
2022/10/25 01:49:04;;;;;;;16.10;11.10;;;14.10;99.90;;;;;;4917281;29;20595;-75
2022/10/25 01:51:35;;;;;;;13.83;11.63;;;14.20;99.90;;;;;;4915673;29;20527;-74
2022/10/25 01:54:18;;;;;;;12.83;11.53;;;14.10;99.90;;;;;;4917341;29;20508;-76
2022/10/25 01:57:05;;;;;;;13.73;12.00;;;14.20;99.90;;;;;;4917756;29;20464;-76
2022/10/25 01:59:59;;;;;;;13.60;11.83;;;14.20;99.90;;;;;;4919554;29;20515;-76
2022/10/25 02:02:32;;;;;;;12.90;11.67;;;14.20;99.90;;;;;;4920617;29;20899;-76
2022/10/25 02:05:16;;;;;;;12.70;11.40;;;14.20;99.90;;;;;;4920680;29;20421;-76
2022/10/25 02:07:51;;;;;;;13.97;11.60;;;14.20;99.90;;;;;;4919490;29;20455;-76
2022/10/25 02:10:24;;;;;;;14.07;10.63;;;14.20;99.90;;;;;;4920760;29;20467;-76
2022/10/25 02:12:56;;;;;;;13.13;11.80;;;14.20;99.90;;;;;;4920832;29;20831;-75
2022/10/25 02:15:32;;;;;;;13.13;11.17;;;14.20;99.90;;;;;;4920386;29;20516;-75
2022/10/25 02:18:04;;;;;;;13.47;12.00;;;14.20;99.90;;;;;;4920647;29;20792;-75
2022/10/25 02:20:35;;;;;;;13.50;11.17;;;14.20;99.90;;;;;;4920596;29;20468;-75
2022/10/25 02:23:05;;;;;;;14.13;12.70;;;14.20;99.90;;;;;;4920565;29;20425;-75
2022/10/25 02:25:35;;;;;;;13.70;11.43;;;14.20;99.90;;;;;;4920529;29;20425;-75
2022/10/25 02:28:07;;;;;;;16.57;12.17;;;14.20;99.90;;;;;;4920429;29;20443;-75
2022/10/25 02:30:36;;;;;;;14.53;11.70;;;14.20;99.90;;;;;;4919687;29;20491;-75
2022/10/25 02:33:05;;;;;;;13.20;11.80;;;14.20;99.90;;;;;;4918848;29;20448;-75
2022/10/25 02:35:34;;;;;;;15.60;12.00;;;14.20;99.90;;;;;;4919939;29;20472;-75
2022/10/25 02:38:03;;;;;;;13.33;11.93;;;14.20;99.90;;;;;;4919049;29;20448;-76
2022/10/25 02:40:31;;;;;;;15.70;11.93;;;14.20;99.90;;;;;;4920240;29;20553;-75
2022/10/25 02:42:59;;;;;;;15.30;12.17;;;14.20;99.90;;;;;;4920546;29;20495;-75
2022/10/25 02:45:27;;;;;;;15.77;11.77;;;14.20;99.90;;;;;;4920420;29;20810;-75
2022/10/25 02:47:55;;;;;;;12.80;11.63;;;14.20;99.90;;;;;;4918665;29;20448;-76
2022/10/25 02:50:23;;;;;;;14.40;12.93;;;14.10;99.90;;;;;;4919749;29;20459;-75
2022/10/25 02:52:53;;;;;;;16.70;11.77;;;14.20;99.90;;;;;;4919726;29;20437;-76
2022/10/25 02:55:21;;;;;;;13.67;12.37;;;14.10;99.90;;;;;;4918411;29;20511;-75
2022/10/25 02:57:49;;;;;;;16.97;13.73;;;14.10;99.90;;;;;;4919866;29;20488;-75
2022/10/25 03:00:17;;;;;;;17.67;12.40;;;14.10;99.90;;;;;;4919574;29;20492;-76
2022/10/25 03:02:45;;;;;;;16.10;12.33;;;14.20;99.90;;;;;;4919584;29;20445;-75
2022/10/25 03:05:14;;;;;;;14.27;12.67;;;14.10;99.90;;;;;;4919509;29;20444;-76
2022/10/25 03:07:42;;;;;;;18.10;13.10;;;14.10;99.90;;;;;;4917734;29;20449;-76
2022/10/25 03:10:11;;;;;;;16.10;14.03;;;14.20;99.90;;;;;;4918398;29;20449;-76
2022/10/25 03:12:39;;;;;;;15.83;13.30;;;14.20;99.90;;;;;;4919652;29;20444;-76
2022/10/25 03:15:09;;;;;;;14.63;13.13;;;14.20;99.90;;;;;;4918048;29;20459;-76
2022/10/25 03:17:37;;;;;;;15.30;13.80;;;14.10;99.90;;;;;;4918263;29;20440;-76
2022/10/25 03:20:06;;;;;;;14.87;13.37;;;14.20;99.90;;;;;;4918013;29;20483;-76
2022/10/25 03:22:35;;;;;;;15.63;13.40;;;14.20;99.90;;;;;;4919260;29;20444;-76
2022/10/25 03:25:03;;;;;;;19.10;14.77;;;14.20;99.90;;;;;;4917963;29;20503;-76
2022/10/25 03:27:32;;;;;;;18.30;14.90;;;14.20;99.90;;;;;;4917865;29;20890;-76
2022/10/25 03:30:00;;;;;;;15.43;13.07;;;14.20;99.90;;;;;;4919382;29;20513;-76
2022/10/25 03:32:28;;;;;;;16.43;14.63;;;14.20;99.90;;;;;;4919729;29;20946;-76
2022/10/25 03:34:56;;;;;;;17.17;15.23;;;14.20;99.90;;;;;;4919080;29;20448;-76
2022/10/25 03:37:25;;;;;;;14.97;13.57;;;14.20;99.90;;;;;;4919025;29;20486;-76
2022/10/25 03:39:53;;;;;;;17.20;13.20;;;14.20;99.90;;;;;;4918850;29;20448;-75
2022/10/25 03:42:21;;;;;;;15.70;14.10;;;14.20;99.90;;;;;;4917821;29;20456;-76
2022/10/25 03:44:51;;;;;;;16.33;13.73;;;14.20;99.90;;;;;;4917735;29;20841;-76
2022/10/25 03:47:19;;;;;;;17.50;14.03;;;14.20;99.90;;;;;;4918772;29;20451;-76
2022/10/25 03:49:47;;;;;;;18.47;13.87;;;14.20;99.90;;;;;;4918739;29;20496;-76
2022/10/25 03:52:15;;;;;;;17.10;13.30;;;14.20;99.90;;;;;;4918690;29;20519;-76
2022/10/25 03:54:43;;;;;;;16.10;14.40;;;14.20;99.90;;;;;;4917359;29;20502;-76
2022/10/25 03:57:11;;;;;;;16.20;14.07;;;14.20;99.90;;;;;;4918909;29;20976;-76
2022/10/25 03:59:39;;;;;;;16.70;14.03;;;14.20;99.90;;;;;;4917283;29;20449;-76
2022/10/25 04:02:09;;;;;;;18.17;13.70;;;14.20;99.90;;;;;;4917214;29;21061;-76
2022/10/25 04:04:37;;;;;;;15.97;13.53;;;14.20;99.90;;;;;;4917320;29;20507;-76
2022/10/25 04:07:05;;;;;;;17.17;15.40;;;14.20;99.90;;;;;;4917502;29;20455;-76
2022/10/25 04:09:33;;;;;;;17.40;15.70;;;14.20;99.90;;;;;;4918617;29;20444;-76
2022/10/25 04:12:01;;;;;;;15.70;14.17;;;14.20;99.90;;;;;;4918272;29;20520;-76
2022/10/25 04:14:30;;;;;;;15.83;14.37;;;14.20;99.90;;;;;;4918572;29;20857;-76
2022/10/25 04:16:58;;;;;;;17.17;14.50;;;14.20;99.90;;;;;;4918472;29;20477;-76
2022/10/25 04:19:27;;;;;;;17.27;14.93;;;14.30;99.90;;;;;;4917652;29;20491;-76
2022/10/25 04:21:55;;;;;;;15.03;13.40;;;14.30;99.90;;;;;;4918028;29;20509;-76
2022/10/25 04:24:23;;;;;;;20.93;13.40;;;14.30;99.90;;;;;;4918493;29;21005;-75
2022/10/25 04:26:51;;;;;;;15.67;14.10;;;14.30;99.90;;;;;;4918567;29;20440;-75
2022/10/25 04:29:19;;;;;;;17.93;13.50;;;14.30;99.90;;;;;;4918245;29;20484;-76
2022/10/25 04:31:47;;;;;;;15.30;13.57;;;14.30;99.90;;;;;;4918222;29;20891;-75
2022/10/25 04:34:15;;;;;;;23.00;15.33;;;14.30;99.90;;;;;;4916647;29;20452;-76
2022/10/25 04:36:45;;;;;;;18.20;15.07;;;14.30;99.90;;;;;;4916564;29;20483;-76
2022/10/25 04:39:13;;;;;;;17.40;13.70;;;14.30;99.90;;;;;;4916602;29;20460;-76
2022/10/25 04:41:41;;;;;;;16.87;14.53;;;14.30;99.90;;;;;;4917767;29;20468;-76
2022/10/25 04:44:09;;;;;;;16.03;13.23;;;14.30;99.90;;;;;;4917960;29;20499;-75
2022/10/25 04:46:37;;;;;;;14.57;12.80;;;14.30;99.90;;;;;;4918206;29;20447;-76
2022/10/25 04:49:05;;;;;;;19.77;12.90;;;14.30;99.90;;;;;;4916467;29;20464;-75
2022/10/25 04:51:33;;;;;;;15.80;12.50;;;14.30;99.90;;;;;;4916365;29;20515;-76
2022/10/25 04:54:03;;;;;;;13.83;12.30;;;14.30;99.90;;;;;;4917842;29;20445;-75
2022/10/25 04:56:31;;;;;;;13.57;11.47;;;14.30;99.90;;;;;;4916269;29;20494;-76
2022/10/25 04:59:00;;;;;;;17.23;12.97;;;14.30;99.90;;;;;;4900966;29;20460;-76
2022/10/25 05:01:28;;;;;;;16.60;14.07;;;14.30;99.90;;;;;;4917437;29;20468;-76
2022/10/25 05:03:57;;;;;;;16.80;12.60;;;14.30;99.90;;;;;;4917435;29;20495;-76
2022/10/25 05:06:26;;;;;;;16.20;12.60;;;14.30;99.90;;;;;;4916151;29;21030;-76
2022/10/25 05:08:54;;;;;;;13.63;12.10;;;14.40;99.90;;;;;;4917643;29;20441;-76
2022/10/25 05:11:25;;;;;;;13.30;11.43;;;14.40;99.90;;;;;;4917328;29;20982;-76
2022/10/25 05:13:53;;;;;;;15.73;11.40;;;14.30;99.90;;;;;;4917712;29;20428;-76
2022/10/25 05:16:24;;;;;;;14.80;12.30;;;14.30;99.90;;;;;;4915966;29;20453;-76
2022/10/25 05:18:54;;;;;;;17.27;13.20;;;14.40;99.90;;;;;;4916111;29;20448;-76
2022/10/25 05:21:25;;;;;;;13.03;11.73;;;14.40;99.90;;;;;;4917309;29;20464;-76
2022/10/25 05:23:54;;;;;;;14.50;11.20;;;14.30;99.90;;;;;;4916073;29;20532;-77
2022/10/25 05:26:31;;;;;;;18.73;12.70;;;14.30;99.90;;;;;;4916140;29;20938;-77
2022/10/25 05:28:59;;;;;;;12.90;11.50;;;14.40;99.90;;;;;;4916172;29;20947;-77
2022/10/25 05:31:29;;;;;;;14.20;12.70;;;14.40;99.90;;;;;;4915784;29;20480;-77
2022/10/25 05:33:59;;;;;;;16.70;12.00;;;14.40;99.90;;;;;;4915911;29;20464;-75
2022/10/25 05:36:28;;;;;;;16.27;11.90;;;14.40;99.90;;;;;;4915982;29;20452;-77
2022/10/25 05:38:56;;;;;;;13.40;12.10;;;14.40;99.90;;;;;;4915961;29;20452;-77
2022/10/25 05:41:24;;;;;;;14.20;12.10;;;14.40;99.90;;;;;;4917354;29;20466;-77
2022/10/25 05:43:53;;;;;;;13.87;12.37;;;14.40;99.90;;;;;;4917440;29;20581;-77
2022/10/25 05:46:23;;;;;;;19.00;12.47;;;14.40;99.90;;;;;;4915862;29;20483;-77
2022/10/25 05:48:52;;;;;;;15.50;13.03;;;14.40;99.90;;;;;;4917073;29;20444;-77
2022/10/25 05:51:22;;;;;;;20.20;14.07;;;14.40;99.90;;;;;;4917085;29;20456;-77
2022/10/25 05:54:07;;;;;;;14.27;12.40;;;14.40;99.90;;;;;;4915865;29;20463;-77
2022/10/25 05:56:36;;;;;;;14.87;12.27;;;14.40;99.90;;;;;;4915584;29;20452;-76
2022/10/25 05:59:08;;;;;;;13.50;12.20;;;14.40;99.90;;;;;;4915832;29;20459;-77
2022/10/25 06:01:37;;;;;;;15.10;12.03;;;14.30;99.90;;;;;;4917352;29;20476;-77
2022/10/25 06:04:06;;;;;;;14.63;13.10;;;14.40;99.90;;;;;;4917482;29;20488;-76
2022/10/25 06:06:35;;;;;;;15.17;12.00;;;14.40;99.90;;;;;;4915546;29;21029;-77
2022/10/25 06:09:04;;;;;;;17.30;13.50;;;14.40;99.90;;;;;;4915630;29;20464;-77
2022/10/25 06:11:33;;;;;;;24.83;13.70;;;14.40;99.90;;;;;;4915574;29;20480;-77
2022/10/25 06:14:01;;;;;;;14.57;12.70;;;14.30;99.90;;;;;;4916840;29;20459;-77
2022/10/25 06:16:31;;;;;;;14.30;12.80;;;14.40;99.90;;;;;;4916924;29;20453;-76
2022/10/25 06:18:59;;;;;;;13.73;11.80;;;14.40;99.90;;;;;;4917261;29;20485;-77
2022/10/25 06:21:29;;;;;;;15.67;12.13;;;14.30;99.90;;;;;;4915680;29;20990;-77
2022/10/25 06:23:58;;;;;;;13.23;11.83;;;14.40;99.90;;;;;;4915493;29;20471;-77
2022/10/25 06:26:29;;;;;;;15.20;12.40;;;14.40;99.90;;;;;;4915595;29;20452;-77
2022/10/25 06:28:59;;;;;;;16.60;12.77;;;14.30;99.90;;;;;;4915508;29;20826;-77
2022/10/25 06:31:28;;;;;;;14.10;12.30;;;14.40;99.90;;;;;;4916817;29;20475;-77
2022/10/25 06:33:58;;;;;;;14.87;13.10;;;14.30;99.90;;;;;;4915401;29;20476;-77
2022/10/25 06:36:27;;;;;;;15.77;12.90;;;14.40;99.90;;;;;;4915378;29;20877;-77
2022/10/25 06:38:55;;;;;;;17.33;12.70;;;14.40;99.90;;;;;;4916476;29;20572;-77
2022/10/25 06:41:26;;;;;;;15.50;13.27;;;14.40;99.90;;;;;;4916759;29;20491;-77
2022/10/25 06:43:54;;;;;;;13.93;12.50;;;14.40;99.90;;;;;;4920059;29;20467;-77
2022/10/25 06:46:24;;;;;;;15.70;12.43;;;14.40;99.90;;;;;;4919896;29;20448;-77
2022/10/25 06:48:54;;;;;;;20.20;13.57;;;14.40;99.90;;;;;;4920481;29;20452;-77
2022/10/25 06:51:25;;;;;;;15.73;13.40;;;14.40;99.90;;;;;;4920043;29;20476;-77
2022/10/25 06:53:54;;;;;;;14.90;13.23;;;14.40;99.90;;;;;;4920099;29;20903;-77
2022/10/25 06:56:23;;;;;;;16.50;12.87;;;14.40;99.90;;;;;;4918614;29;20460;-77
2022/10/25 06:58:51;;;;;;;18.00;13.90;;;14.40;99.90;;;;;;4919917;29;20476;-77
2022/10/25 07:01:21;;;;;;;17.50;13.70;;;14.40;99.90;;;;;;4918830;29;20480;-76
2022/10/25 07:03:52;;;;;;;17.33;12.50;;;14.50;99.90;;;;;;4920203;29;20437;-77
2022/10/25 07:06:23;;;;;;;15.50;12.77;;;14.40;99.90;;;;;;4918941;29;20449;-77
2022/10/25 07:08:55;;;;;;;18.80;12.43;;;14.50;99.90;;;;;;4918356;29;20893;-77
2022/10/25 07:11:24;;;;;;;14.30;12.63;;;14.40;99.90;;;;;;4919988;29;20464;-77
2022/10/25 07:13:53;;;;;;;14.83;13.23;;;14.50;99.90;;;;;;4919433;29;20453;-76
2022/10/25 07:16:21;;;;;;;16.13;13.20;;;14.50;99.90;;;;;;4918156;29;20452;-77
2022/10/25 07:18:49;;;;;;;14.77;12.97;;;14.50;99.90;;;;;;4918102;29;20472;-76
2022/10/25 07:21:20;;;;;;;14.77;12.47;;;14.50;99.90;;;;;;4919337;29;20512;-77
2022/10/25 07:23:49;;;;;;;15.53;13.40;;;14.50;99.90;;;;;;4919570;29;20440;-75
2022/10/25 07:26:20;;;;;;;18.07;13.50;;;14.50;99.90;;;;;;4919325;29;20448;-77
2022/10/25 07:28:50;;;;;;;16.23;13.30;;;14.50;99.90;;;;;;4919291;29;20425;-77
2022/10/25 07:31:21;;;;;;;16.20;13.53;;;14.50;99.90;;;;;;4919145;29;20471;-77
2022/10/25 07:33:50;;;;;;;21.30;13.33;;;14.50;99.90;;;;;;4917996;29;20457;-77
2022/10/25 07:36:19;;;;;;;15.83;12.73;;;14.50;99.90;;;;;;4919389;29;20526;-77
2022/10/25 07:38:47;;;;;;;19.10;14.67;;;14.50;99.90;;;;;;4917804;29;20472;-77
2022/10/25 07:41:15;;;;;;;17.13;14.00;;;14.50;99.90;;;;;;4917650;29;20480;-77
2022/10/25 07:43:45;;;;;;;21.67;15.20;;;14.60;99.90;;;;;;4918947;29;20866;-77
2022/10/25 07:46:13;;;;;;;15.00;13.50;;;14.60;99.90;;;;;;4919148;29;20448;-77
2022/10/25 07:48:41;;;;;;;16.73;13.43;;;14.60;99.90;;;;;;4918884;29;20432;-77
2022/10/25 07:51:12;;;;;;;17.43;14.33;;;14.60;99.90;;;;;;4919143;29;20471;-77
2022/10/25 07:53:40;;;;;;;15.53;13.80;;;14.60;99.90;;;;;;4917610;29;20459;-77
2022/10/25 07:56:13;;;;;;;14.60;12.70;;;14.70;99.90;;;;;;4918917;29;20464;-77
2022/10/25 07:58:49;;;;;;;15.10;12.60;;;14.70;99.90;;;;;;4917784;29;20464;-77
2022/10/25 08:01:20;;;;;;;14.37;12.67;;;14.70;99.90;;;;;;4917506;29;20476;-77
2022/10/25 08:03:49;;;;;;;17.33;13.70;;;14.70;99.90;;;;;;4919057;29;20444;-77
2022/10/25 08:06:17;;;;;;;16.00;13.80;;;14.70;99.90;;;;;;4918696;29;20505;-76
2022/10/25 08:08:46;;;;;;;16.50;12.40;;;14.70;99.90;;;;;;4917444;29;20938;-76
2022/10/25 08:11:15;;;;;;;18.77;12.47;;;14.70;99.90;;;;;;4917276;29;20543;-76
2022/10/25 08:13:43;;;;;;;18.70;12.40;;;14.80;99.90;;;;;;4917422;29;20463;-76
2022/10/25 08:16:12;;;;;;;15.60;12.70;;;14.80;99.90;;;;;;4918812;29;20806;-76
2022/10/25 08:18:42;;;;;;;17.77;13.90;;;14.90;99.90;;;;;;4917161;29;20480;-76
2022/10/25 08:21:11;;;;;;;15.60;12.83;;;14.90;99.90;;;;;;4918915;29;20467;-76
2022/10/25 08:23:39;;;;;;;15.53;11.47;;;14.90;99.90;;;;;;4917012;29;20453;-76
2022/10/25 08:26:07;;;;;;;15.73;12.40;;;14.90;99.90;;;;;;4917384;29;20448;-77
2022/10/25 08:28:35;;;;;;;13.07;11.67;;;14.90;99.90;;;;;;4920696;29;20451;-76
2022/10/25 08:31:03;;;;;;;13.90;12.17;;;14.90;99.90;;;;;;4925185;29;20555;-77
2022/10/25 08:33:33;;;;;;;14.07;12.63;;;14.90;99.90;;;;;;4927013;29;20456;-77
2022/10/25 08:36:01;;;;;;;15.33;13.00;;;14.90;99.90;;;;;;4927358;29;20454;-77
2022/10/25 08:38:30;;;;;;;15.40;11.77;;;14.90;99.90;;;;;;4926163;29;20472;-76
2022/10/25 08:41:05;;;;;;;15.57;13.53;;;14.90;99.90;;;;;;4924591;29;20472;-76
2022/10/25 08:43:55;;;;;;;19.47;12.83;;;14.90;99.90;;;;;;4927444;29;20563;-76
2022/10/25 08:46:27;;;;;;;20.70;13.90;;;14.80;99.90;;;;;;4924237;29;20428;-76
2022/10/25 08:49:12;;;;;;;20.47;13.33;;;14.80;99.90;;;;;;4922762;29;20943;-76
2022/10/25 08:51:43;;;;;;;19.57;13.07;;;14.90;99.90;;;;;;4923159;29;20896;-77
2022/10/25 08:54:21;;;;;;;20.17;13.30;;;14.90;99.90;;;;;;4925191;29;20511;-77
2022/10/25 08:56:51;;;;;;;16.80;13.13;;;14.90;99.90;;;;;;4925875;29;20438;-76
2022/10/25 08:59:41;;;;;;;16.60;12.40;;;15.00;99.90;;;;;;4924172;29;20452;-77
2022/10/25 09:02:17;;;;;;;15.10;12.10;;;15.00;99.90;;;;;;4923396;29;20559;-77
2022/10/25 09:04:47;;;;;;;17.30;12.60;;;15.10;99.90;;;;;;4920207;29;20455;-77
2022/10/25 09:07:35;;;;;;;20.87;12.83;;;15.10;99.90;;;;;;4920337;29;20460;-77
2022/10/25 09:10:20;;;;;;;16.63;11.77;;;15.20;99.90;;;;;;4919390;29;20456;-77
2022/10/25 09:12:58;;;;;;;14.70;11.97;;;15.20;99.90;;;;;;4918670;29;20480;-77
2022/10/25 09:15:43;;;;;;;14.13;11.93;;;15.20;99.90;;;;;;4921287;29;20456;-76
2022/10/25 09:18:16;;;;;;;16.00;12.90;;;15.20;99.90;;;;;;4920311;29;20814;-76
2022/10/25 09:20:50;;;;;;;16.03;12.97;;;15.30;99.90;;;;;;4920171;29;20488;-77
2022/10/25 09:23:26;;;;;;;14.80;11.40;;;15.40;99.90;;;;;;4917095;29;20520;-76
2022/10/25 09:26:03;;;;;;;15.40;12.83;;;15.40;99.90;;;;;;4918240;29;20432;-76
2022/10/25 09:28:46;;;;;;;11.90;10.67;;;15.40;99.90;;;;;;4918240;29;20447;-76
2022/10/25 09:31:19;;;;;;;15.97;11.50;;;15.40;99.90;;;;;;4917848;29;20456;-77
2022/10/25 09:33:48;;;;;;;21.63;10.77;;;15.40;99.90;;;;;;4916770;29;20917;-77
2022/10/25 09:36:18;;;;;;;13.80;10.00;;;15.40;99.90;;;;;;4918068;29;20426;-77
2022/10/25 09:38:50;;;;;;;12.37;10.43;;;15.30;99.90;;;;;;4916250;29;20853;-76
2022/10/25 09:41:23;;;;;;;12.93;9.90;;;15.40;99.90;;;;;;4917581;29;20475;-77
2022/10/25 09:43:58;;;;;;;13.00;10.77;;;15.40;99.90;;;;;;4916012;29;20444;-77
2022/10/25 09:46:35;;;;;;;12.23;10.43;;;15.40;99.90;;;;;;4917523;29;20832;-77
2022/10/25 09:49:14;;;;;;;16.37;9.33;;;15.40;99.90;;;;;;4918581;29;20424;-76
2022/10/25 09:51:52;;;;;;;12.87;8.60;;;15.30;99.90;;;;;;4916119;29;20451;-76
2022/10/25 09:54:28;;;;;;;11.63;8.93;;;15.30;99.90;;;;;;4915860;29;20934;-76
2022/10/25 09:56:56;;;;;;;11.77;8.40;;;15.30;99.90;;;;;;4917338;29;20435;-77
2022/10/25 09:59:26;;;;;;;11.73;8.33;;;15.30;99.90;;;;;;4917139;29;20491;-76
2022/10/25 10:01:54;;;;;;;12.47;9.00;;;15.30;99.90;;;;;;4917181;29;20464;-76
2022/10/25 10:04:25;;;;;;;16.60;8.97;;;15.30;99.90;;;;;;4915728;29;20527;-76
2022/10/25 10:06:58;;;;;;;12.83;9.87;;;15.30;99.90;;;;;;4917411;29;20421;-76
2022/10/25 10:09:31;;;;;;;13.50;9.40;;;15.30;99.90;;;;;;4917151;29;20792;-76
2022/10/25 10:12:02;;;;;;;14.00;8.70;;;15.30;99.90;;;;;;4916924;29;20466;-76
2022/10/25 10:14:37;;;;;;;12.43;9.47;;;15.40;99.90;;;;;;4917463;29;20913;-76
2022/10/25 10:17:10;;;;;;;10.63;9.30;;;15.40;99.90;;;;;;4917632;29;20423;-75
2022/10/25 10:19:39;;;;;;;10.13;8.40;;;15.40;99.90;;;;;;4920442;29;20438;-75
2022/10/25 10:22:13;;;;;;;11.43;7.97;;;15.40;99.90;;;;;;4920410;29;20482;-76
2022/10/25 10:24:43;;;;;;;15.30;9.27;;;15.40;99.90;;;;;;4919191;29;20510;-76
2022/10/25 10:27:24;;;;;;;15.10;9.60;;;15.40;99.90;;;;;;4919062;29;20574;-76
2022/10/25 10:29:56;;;;;;;11.53;8.83;;;15.50;99.90;;;;;;4919025;29;20463;-76
2022/10/25 10:32:27;;;;;;;13.70;9.00;;;15.50;99.90;;;;;;4919584;29;20448;-75
2022/10/25 10:34:57;;;;;;;14.23;9.10;;;15.50;99.90;;;;;;4920455;29;20504;-76
2022/10/25 10:37:28;;;;;;;11.67;8.37;;;15.60;99.90;;;;;;4918942;29;20472;-76
2022/10/25 10:39:58;;;;;;;9.10;8.00;;;15.70;99.90;;;;;;4918785;29;20846;-76
2022/10/25 10:42:34;;;;;;;10.90;8.57;;;15.70;99.90;;;;;;4918763;29;20444;-75
2022/10/25 10:45:15;;;;;;;10.17;7.53;;;15.80;99.90;;;;;;4919185;29;20446;-75
2022/10/25 10:47:45;;;;;;;11.30;7.97;;;15.90;99.90;;;;;;4920378;29;20432;-75
2022/10/25 10:50:24;;;;;;;9.63;8.50;;;15.90;99.90;;;;;;4920339;29;20472;-75
2022/10/25 10:52:58;;;;;;;14.83;8.13;;;16.00;99.90;;;;;;4919901;29;20425;-76
2022/10/25 10:55:30;;;;;;;11.47;7.20;;;16.00;99.90;;;;;;4920105;29;20464;-76
2022/10/25 10:58:03;;;;;;;8.13;6.60;;;16.10;99.90;;;;;;4918586;29;20426;-76
2022/10/25 11:00:32;;;;;;;10.20;6.87;;;16.10;99.90;;;;;;4918449;29;20567;-76
2022/10/25 11:03:01;;;;;;;9.00;6.60;;;16.10;99.90;;;;;;4919858;29;20484;-76
2022/10/25 11:05:31;;;;;;;9.27;6.37;;;16.10;99.90;;;;;;4918533;29;20423;-76
2022/10/25 11:08:02;;;;;;;10.17;6.10;;;16.10;99.90;;;;;;4918611;29;20430;-76
2022/10/25 11:10:32;;;;;;;8.00;6.40;;;16.10;99.90;;;;;;4918340;29;20560;-76
2022/10/25 11:13:12;;;;;;;11.57;6.70;;;16.20;99.90;;;;;;4919791;29;20445;-76
2022/10/25 11:16:16;;;;;;;12.90;7.63;;;16.10;99.90;;;;;;4918259;29;20866;-76
2022/10/25 11:19:04;;;;;;;8.47;6.73;;;16.20;99.90;;;;;;4918581;29;20444;-76
2022/10/25 11:21:49;;;;;;;10.57;6.50;;;16.20;99.90;;;;;;4918047;29;20488;-76
2022/10/25 11:24:29;;;;;;;9.33;6.73;;;16.20;99.90;;;;;;4919912;29;20429;-75
2022/10/25 11:27:05;;;;;;;12.37;7.50;;;16.20;99.90;;;;;;4919500;29;20448;-76
2022/10/25 11:30:03;;;;;;;8.70;6.43;;;16.20;99.90;;;;;;4917652;29;20450;-76
2022/10/25 11:33:07;;;;;;;10.33;7.10;;;16.20;99.90;;;;;;4914460;29;20821;-76
2022/10/25 11:35:50;;;;;;;7.83;7.13;;;16.30;99.90;;;;;;4917991;29;20535;-77
2022/10/25 11:38:26;;;;;;;9.63;6.73;;;16.30;99.90;;;;;;4919865;29;20921;-77
2022/10/25 11:41:06;;;;;;;9.30;6.90;;;16.30;99.90;;;;;;4917967;29;20510;-76
2022/10/25 11:43:50;;;;;;;11.97;6.60;;;16.30;99.90;;;;;;4919039;29;20871;-76
2022/10/25 11:46:28;;;;;;;7.87;6.80;;;16.30;99.90;;;;;;4917818;29;20938;-77
2022/10/25 11:49:28;;;;;;;7.40;6.50;;;16.30;99.90;;;;;;4917744;29;20462;-77
2022/10/25 11:52:16;;;;;;;9.00;6.13;;;16.40;99.90;;;;;;4918696;29;20476;-76
2022/10/25 11:54:52;;;;;;;9.73;6.47;;;16.40;99.90;;;;;;4919047;29;20426;-76
2022/10/25 11:57:34;;;;;;;7.60;6.53;;;16.40;99.90;;;;;;4917523;29;20437;-76
2022/10/25 12:00:12;;;;;;;7.50;5.83;;;16.50;99.90;;;;;;4917299;29;20504;-77
2022/10/25 12:03:02;;;;;;;7.50;5.90;;;16.60;99.90;;;;;;4917353;29;20448;-76
2022/10/25 12:05:37;;;;;;;9.60;7.10;;;16.70;99.90;;;;;;4917427;29;20485;-77
2022/10/25 12:08:18;;;;;;;6.50;5.30;;;16.80;99.90;;;;;;4918636;29;20427;-75
2022/10/25 12:10:49;;;;;;;9.93;6.30;;;16.80;99.90;;;;;;4918730;29;20478;-76
2022/10/25 12:13:24;;;;;;;7.87;4.93;;;16.90;99.90;;;;;;4917358;29;20539;-76
2022/10/25 12:15:55;;;;;;;9.97;4.93;;;16.90;99.90;;;;;;4917155;29;20933;-76
2022/10/25 12:18:29;;;;;;;7.87;5.43;;;17.00;99.90;;;;;;4918599;29;20798;-76
2022/10/25 12:20:58;;;;;;;7.93;4.97;;;17.00;99.90;;;;;;4918405;29;20463;-76
2022/10/25 12:23:30;;;;;;;6.43;4.87;;;17.10;99.90;;;;;;4918731;29;20441;-76
2022/10/25 12:26:05;;;;;;;10.80;5.33;;;17.10;99.90;;;;;;4918985;29;20487;-76
2022/10/25 12:28:43;;;;;;;8.10;5.23;;;17.10;99.90;;;;;;4918417;29;20477;-76
2022/10/25 12:31:16;;;;;;;9.30;4.50;;;17.00;99.90;;;;;;4918281;29;20439;-76
2022/10/25 12:33:49;;;;;;;7.27;4.13;;;17.00;99.90;;;;;;4918392;29;20461;-76
2022/10/25 12:36:26;;;;;;;7.00;4.33;;;16.90;99.90;;;;;;4916772;29;20513;-76
2022/10/25 12:38:57;;;;;;;4.60;3.63;;;16.90;99.90;;;;;;4916783;29;20508;-77
2022/10/25 12:41:28;;;;;;;6.80;4.83;;;16.90;99.90;;;;;;4915968;29;20989;-77
2022/10/25 12:44:30;;;;;;;8.70;4.13;;;16.90;99.90;;;;;;4917962;29;20797;-75
2022/10/25 12:47:23;;;;;;;10.70;4.43;;;17.00;99.90;;;;;;4918250;29;20502;-76
2022/10/25 12:50:14;;;;;;;6.93;3.77;;;17.00;99.90;;;;;;4918219;29;20432;-76
2022/10/25 12:52:59;;;;;;;10.90;4.30;;;17.00;99.90;;;;;;4914522;29;20439;-76
2022/10/25 12:55:42;;;;;;;8.00;4.53;;;17.00;99.90;;;;;;4917808;29;20969;-77
2022/10/25 12:58:27;;;;;;;7.67;4.27;;;17.10;99.90;;;;;;4918039;29;20399;-77